Flight Track Log - Related Links

Times and Time Zones

All times are in EDT time to prevent confusion due to time zone crossing. See the CSJ405 flight status page for this flight to view local times or setup timezone preferences in your user account.

Time Position Orientation Groundspeed Altitude Reporting Facility
EDT Latitude Longitude Course Direction KTS MPH feet Rate Location/Type
Wed 04:48:11 AM 45.6667 -73.9833 35° Northeast 120 138 400  Level Montreal Center
Wed 04:49:11 AM 45.7000 -73.9500 35° Northeast 120 138 1,900 1,350 Climbing Montreal Center
Wed 04:50:11 AM 45.7000 -73.9000 90° East 110 127 3,100 1,250 Climbing Montreal Center
Wed 04:51:11 AM 45.6667 -73.9000 180° South 110 127 4,400 1,250 Climbing Montreal Center
Wed 04:52:11 AM 45.6500 -73.9000 180° South 110 127 5,600 1,150 Climbing Montreal Center
Wed 04:53:11 AM 45.6167 -73.9000 180° South 110 127 6,700 1,150 Climbing Montreal Center
Wed 04:54:11 AM 45.5833 -73.9167 199° South 120 138 7,900 1,100 Climbing Montreal Center
Wed 04:55:11 AM 45.5500 -73.8833 145° Southeast 110 127 8,900 1,100 Climbing Montreal Center
Wed 04:56:11 AM 45.5167 -73.8833 180° South 120 138 10,100 550 Climbing Montreal Center
Wed 04:57:11 AM 45.4667 -73.9167 205° Southwest 160 184 10,000 -50 Descending Montreal Center
Wed 04:58:11 AM 45.4333 -73.8833 145° Southeast 170 196 10,000  Level Montreal Center
Wed 04:59:11 AM 45.3833 -73.9000 193° South 170 196 10,000  Level Montreal Center
Wed 05:00:11 AM 45.3333 -73.9000 180° South 170 196 10,000  Level Montreal Center
Wed 05:01:11 AM 45.2833 -73.9000 180° South 170 196 10,000  Level Montreal Center
Wed 05:02:11 AM 45.2500 -73.9000 180° South 170 196 10,000  Level Montreal Center
Wed 05:03:11 AM 45.2000 -73.8833 167° South 170 196 10,000  Level Montreal Center
Wed 05:04:11 AM 45.1500 -73.8833 180° South 170 196 10,000  Level Montreal Center
Wed 05:05:11 AM 45.1000 -73.8833 180° South 170 196 10,000  Level Montreal Center
Wed 05:06:11 AM 45.0500 -73.8833 180° South 170 196 10,000  Level Montreal Center
Wed 05:07:11 AM 45.0000 -73.8833 180° South 170 196 10,000  Level Montreal Center
Wed 05:08:11 AM 44.9500 -73.8833 180° South 170 196 10,000  Level Montreal Center
Wed 05:09:11 AM 44.9167 -73.8667 161° South 170 196 10,000  Level Montreal Center
Wed 05:10:11 AM 44.8667 -73.8667 180° South 170 196 10,000  Level Montreal Center
Wed 05:10:26 AM 44.8647 -73.8808 259° West 177 204 10,000  Level Boston Center
Wed 05:11:11 AM 44.8167 -73.8667 168° South 170 196 10,000  Level Montreal Center
Wed 05:11:26 AM 44.8192 -73.8769 289° West 177 204 10,000  Level Boston Center
Wed 05:12:11 AM 44.7667 -73.8667 172° South 170 196 10,000  Level Montreal Center
Wed 05:12:26 AM 44.7711 -73.8758 304° West 177 204 10,000  Level Boston Center
Wed 05:13:11 AM 44.7167 -73.8667 173° South 170 196 10,000  Level Montreal Center
Wed 05:14:11 AM 44.6833 -73.8667 180° South 170 196 10,000  Level Montreal Center
Wed 05:15:11 AM 44.6333 -73.8500 167° South 170 196 10,000  Level Montreal Center
Wed 05:16:11 AM 44.5833 -73.8500 180° South 170 196 10,000  Level Montreal Center
Wed 05:16:26 AM 44.5878 -73.8714 286° West 177 204 10,000  Level Boston Center
Wed 05:17:26 AM 44.5400 -73.8672 176° South 177 204 10,000  Level Boston Center
Wed 05:18:26 AM 44.4919 -73.8689 181° South 177 204 10,000  Level Boston Center
Wed 05:19:26 AM 44.4464 -73.8678 179° South 177 204 10,000  Level Boston Center
Wed 05:20:26 AM 44.3964 -73.8636 177° South 177 204 10,000  Level Boston Center
Wed 05:21:26 AM 44.3483 -73.8625 179° South 177 204 10,000  Level Boston Center
Wed 05:22:26 AM 44.3006 -73.8614 179° South 177 204 10,000  Level Boston Center
Wed 05:23:26 AM 44.2525 -73.8575 177° South 177 204 10,000  Level Boston Center
Wed 05:24:38 AM 44.2047 -73.8564 179° South 177 204 10,000  Level Boston Center
Wed 05:25:38 AM 44.1442 -73.8578 181° South 177 204 10,000  Level Boston Center
Wed 05:26:38 AM 44.0964 -73.8536 176° South 177 204 10,000  Level Boston Center
Wed 05:27:38 AM 44.0525 -73.8528 179° South 177 204 10,000  Level Boston Center
Wed 05:28:38 AM 44.0047 -73.8514 179° South 177 204 10,000  Level Boston Center
Wed 05:29:38 AM 43.9569 -73.8475 177° South 177 204 10,000  Level Boston Center
Wed 05:30:38 AM 43.9025 -73.8492 181° South 177 204 10,000  Level Boston Center
Wed 05:31:38 AM 43.8525 -73.8481 179° South 177 204 10,000  Level Boston Center
Wed 05:32:38 AM 43.8047 -73.8467 179° South 177 204 10,000  Level Boston Center
Wed 05:33:38 AM 43.7547 -73.8428 177° South 177 204 10,000  Level Boston Center
Wed 05:34:38 AM 43.7047 -73.8417 179° South 177 204 10,000  Level Boston Center
Wed 05:35:38 AM 43.6631 -73.8378 176° South 177 204 10,000  Level Boston Center
Wed 05:36:38 AM 43.6131 -73.8367 179° South 177 204 10,000  Level Boston Center
Wed 05:37:38 AM 43.5569 -73.8353 179° South 178 205 10,000  Level Boston Center
Wed 05:38:38 AM 43.5131 -73.8286 174° South 177 204 10,000  Level Boston Center
Wed 05:39:38 AM 43.4631 -73.8275 179° South 177 204 10,000  Level Boston Center
Wed 05:40:38 AM 43.4131 -73.8264 179° South 177 204 10,000  Level Boston Center
Wed 05:41:47 AM 43.3528 -73.8306 183° South 181 208 10,000 -250 Level Boston Center
Wed 05:42:38 AM 43.3047 -73.8267 177° South 182 209 9,500 -703 Descending Boston Center
Wed 05:43:38 AM 43.2528 -73.8228 177° South 192 221 8,700 -700 Descending Boston Center
Wed 05:44:38 AM 43.1986 -73.8186 177° South 197 227 8,100 -450 Descending Boston Center
Wed 05:45:38 AM 43.1486 -73.8175 179° South 191 220 7,800 950 Descending Boston Center
Wed 05:46:38 AM 43.0986 -73.8106 174° South 184 212 10,000 -1,200 Climbing Boston Center
Wed 05:47:38 AM 43.0489 -73.8011 172° South 184 212 5,400 -2,700 Descending Boston Center
Wed 05:48:38 AM 42.9986 -73.8028 181° South 177 204 4,600 -850 Descending Boston Center
Wed 05:49:38 AM 42.9508 -73.8017 179° South 177 204 3,700 -650 Descending Boston Center
Wed 05:50:38 AM 42.9008 -73.7978 177° South 177 204 3,300 -450 Descending Boston Center
Wed 05:51:38 AM 42.8531 -73.7911 174° South 177 204 2,800 -640 Descending Boston Center
Wed 05:51:53 AM 42.8383 -73.7878 171° South 180 207 2,500 -789 Descending Boston Center
Wed 05:52:54 AM 42.7906 -73.7783 172° South 177 204 1,800 -992 Descending Boston Center
Wed 05:53:54 AM 42.7508 -73.7831 185° South 131 151 500 -1,300 Descending Boston Center
Wed 05:55:00 AM 42.7491 -73.8020 180° South  Level Estimated
Wed 06:02:00 AM 42.7491 -73.8020 180° South  Level Estimated
Wed 06:03:00 AM 42.7491 -73.8020 180° South  Level Estimated
Wed 06:04:00 AM 42.7491 -73.8020 180° South  Level Estimated

Login

Don't have an account? Register now (free) for customized features, flight alerts, and more!